Time;durP1;ratioP1;P1;durP2;ratioP2;P2;SDS_P1;SDS_P2;PMS_P1;PMS_P2;Temp;Humidity;BMP_temperature;BMP_pressure;BME280_temperature;BME280_humidity;BME280_pressure;Samples;Min_cycle;Max_cycle;Signal;HPM_P1;HPM_P2
2023/11/14 00:02:33;;;;;;;1.83;0.77;;;;;;;;;;4836794;29;20575;-84
2023/11/14 00:05:37;;;;;;;2.57;0.90;;;;;;;;;;4826819;29;20192;-84
2023/11/14 00:08:41;;;;;;;1.27;0.50;;;;;;;;;;4826768;29;20224;-84
2023/11/14 00:11:45;;;;;;;3.80;0.80;;;;;;;;;;4826612;29;20231;-83
2023/11/14 00:14:50;;;;;;;3.40;0.90;;;;;;;;;;4826185;29;20216;-83
2023/11/14 00:17:54;;;;;;;3.37;0.70;;;;;;;;;;4829261;29;20192;-83
2023/11/14 00:20:58;;;;;;;3.43;0.70;;;;;;;;;;4829631;29;20192;-83
2023/11/14 00:24:02;;;;;;;2.63;0.83;;;;;;;;;;4828745;29;20196;-83
2023/11/14 00:27:06;;;;;;;2.87;0.90;;;;;;;;;;4830258;29;20528;-83
2023/11/14 00:30:12;;;;;;;6.20;1.20;;;;;;;;;;4818990;29;20663;-83
2023/11/14 00:33:16;;;;;;;3.77;1.17;;;;;;;;;;4829896;29;20571;-83
2023/11/14 00:36:20;;;;;;;4.53;1.03;;;;;;;;;;4839336;29;20201;-83
2023/11/14 00:39:24;;;;;;;4.87;1.23;;;;;;;;;;4839396;29;20635;-83
2023/11/14 00:42:29;;;;;;;4.30;1.00;;;;;;;;;;4829805;29;20228;-83
2023/11/14 00:45:33;;;;;;;7.40;1.47;;;;;;;;;;4839208;29;20196;-83
2023/11/14 00:48:39;;;;;;;4.23;0.90;;;;;;;;;;4839592;29;20216;-83
2023/11/14 00:51:43;;;;;;;7.53;0.93;;;;;;;;;;4828334;29;20227;-83
2023/11/14 00:54:46;;;;;;;5.33;1.57;;;;;;;;;;4828926;29;20192;-84
2023/11/14 00:57:51;;;;;;;6.83;1.20;;;;;;;;;;4839279;29;20201;-83
2023/11/14 01:00:55;;;;;;;5.50;1.30;;;;;;;;;;4839742;29;20527;-83
2023/11/14 01:03:59;;;;;;;5.60;1.17;;;;;;;;;;4828713;29;20196;-83
2023/11/14 01:07:03;;;;;;;5.27;1.20;;;;;;;;;;4829369;29;20192;-83
2023/11/14 01:10:09;;;;;;;6.87;1.23;;;;;;;;;;4828328;29;20189;-83
2023/11/14 01:13:14;;;;;;;2.83;1.20;;;;;;;;;;4838787;29;20232;-83
2023/11/14 01:16:18;;;;;;;3.40;1.20;;;;;;;;;;4838685;29;20189;-83
2023/11/14 01:19:22;;;;;;;2.57;1.00;;;;;;;;;;4817760;29;20527;-83
2023/11/14 01:22:26;;;;;;;8.40;1.80;;;;;;;;;;4838946;29;20224;-83
2023/11/14 01:25:30;;;;;;;5.07;1.20;;;;;;;;;;4839735;29;20196;-83
2023/11/14 01:28:34;;;;;;;5.80;1.30;;;;;;;;;;4827629;29;20567;-83
2023/11/14 01:31:39;;;;;;;2.47;0.90;;;;;;;;;;4838814;29;20231;-83
2023/11/14 01:34:44;;;;;;;6.10;1.37;;;;;;;;;;4828194;29;20196;-83
2023/11/14 01:37:49;;;;;;;3.63;1.10;;;;;;;;;;4838289;29;20188;-83
2023/11/14 01:40:53;;;;;;;7.97;1.40;;;;;;;;;;4838413;29;20196;-83
2023/11/14 01:43:57;;;;;;;5.37;1.10;;;;;;;;;;4828205;29;20193;-83
2023/11/14 01:47:02;;;;;;;4.87;1.07;;;;;;;;;;4829108;29;20196;-83
2023/11/14 01:50:07;;;;;;;6.97;1.10;;;;;;;;;;4828248;29;20529;-83
2023/11/14 01:53:12;;;;;;;4.60;1.40;;;;;;;;;;4828897;29;20231;-83
2023/11/14 01:56:17;;;;;;;7.53;1.40;;;;;;;;;;4828895;29;20524;-84
2023/11/14 01:59:23;;;;;;;3.90;1.30;;;;;;;;;;4838499;29;20196;-83
2023/11/14 02:02:28;;;;;;;6.43;1.60;;;;;;;;;;4817591;29;20228;-84
2023/11/14 02:05:32;;;;;;;3.37;1.30;;;;;;;;;;4838092;29;20532;-83
2023/11/14 02:08:38;;;;;;;4.03;1.17;;;;;;;;;;4828549;29;20220;-83
2023/11/14 02:11:44;;;;;;;7.57;1.30;;;;;;;;;;4837795;29;20228;-83
2023/11/14 02:14:47;;;;;;;5.30;1.20;;;;;;;;;;4838095;29;20216;-83
2023/11/14 02:17:51;;;;;;;3.77;1.67;;;;;;;;;;4838122;29;20536;-83
2023/11/14 02:20:56;;;;;;;4.80;1.33;;;;;;;;;;4827673;29;20196;-83
2023/11/14 02:24:03;;;;;;;7.90;1.80;;;;;;;;;;4828349;29;20188;-83
2023/11/14 02:27:08;;;;;;;2.50;1.13;;;;;;;;;;4837419;29;20196;-83
2023/11/14 02:30:13;;;;;;;7.10;1.30;;;;;;;;;;4827857;29;20193;-83
2023/11/14 02:33:17;;;;;;;4.30;0.90;;;;;;;;;;4837374;29;20227;-83
2023/11/14 02:36:21;;;;;;;4.00;1.33;;;;;;;;;;4827724;29;20196;-83
2023/11/14 02:39:26;;;;;;;3.20;1.27;;;;;;;;;;4827252;29;20196;-83
2023/11/14 02:42:31;;;;;;;2.87;1.07;;;;;;;;;;4828423;29;20223;-83
2023/11/14 02:45:35;;;;;;;4.53;1.03;;;;;;;;;;4827107;29;20192;-83
2023/11/14 02:48:39;;;;;;;4.70;1.50;;;;;;;;;;4816202;29;20223;-83
2023/11/14 02:51:43;;;;;;;2.77;1.10;;;;;;;;;;4837397;29;20232;-83
2023/11/14 02:54:47;;;;;;;4.37;1.37;;;;;;;;;;4827069;29;20192;-84
2023/11/14 02:57:52;;;;;;;6.07;1.40;;;;;;;;;;4828214;29;20192;-84
2023/11/14 03:00:56;;;;;;;4.73;1.63;;;;;;;;;;4826455;29;20188;-84
2023/11/14 03:04:00;;;;;;;5.00;1.00;;;;;;;;;;4826339;29;20188;-84
2023/11/14 03:07:04;;;;;;;2.67;1.40;;;;;;;;;;4826673;29;20646;-84
2023/11/14 03:10:09;;;;;;;9.10;1.50;;;;;;;;;;4826230;29;20223;-84
2023/11/14 03:13:13;;;;;;;3.17;1.30;;;;;;;;;;4836301;29;20240;-84
2023/11/14 03:16:17;;;;;;;4.47;1.47;;;;;;;;;;4826219;29;20651;-84
2023/11/14 03:19:21;;;;;;;4.70;1.27;;;;;;;;;;4826200;29;20651;-84
2023/11/14 03:22:25;;;;;;;3.63;1.27;;;;;;;;;;4815208;29;20227;-84
2023/11/14 03:25:29;;;;;;;5.57;1.47;;;;;;;;;;4836183;29;20196;-84
2023/11/14 03:28:34;;;;;;;5.97;1.20;;;;;;;;;;4825346;29;20219;-84
2023/11/14 03:31:38;;;;;;;9.07;1.50;;;;;;;;;;4825534;29;20236;-84
2023/11/14 03:34:43;;;;;;;9.93;1.70;;;;;;;;;;4826004;29;20200;-84
2023/11/14 03:37:47;;;;;;;10.77;1.70;;;;;;;;;;4815077;29;20200;-84
2023/11/14 03:40:52;;;;;;;5.50;1.70;;;;;;;;;;4825224;29;20195;-84
2023/11/14 03:43:56;;;;;;;6.27;1.57;;;;;;;;;;4836067;29;20188;-84
2023/11/14 03:47:00;;;;;;;4.87;1.33;;;;;;;;;;4825976;29;20196;-84
2023/11/14 03:50:07;;;;;;;4.53;1.17;;;;;;;;;;4826741;29;20220;-84
2023/11/14 03:53:11;;;;;;;5.43;1.60;;;;;;;;;;4829011;29;20231;-84
2023/11/14 03:56:15;;;;;;;5.30;1.57;;;;;;;;;;4841121;29;20196;-84
2023/11/14 03:59:20;;;;;;;5.57;1.50;;;;;;;;;;4829039;29;20635;-84
2023/11/14 04:02:26;;;;;;;6.37;1.87;;;;;;;;;;4829040;29;20232;-84
2023/11/14 04:05:30;;;;;;;14.10;1.63;;;;;;;;;;4839105;29;20192;-83
2023/11/14 04:08:34;;;;;;;5.63;1.47;;;;;;;;;;4838945;29;20220;-84
2023/11/14 04:11:45;;;;;;;9.37;1.50;;;;;;;;;;4817784;29;20235;-84
2023/11/14 04:14:49;;;;;;;8.43;1.40;;;;;;;;;;4828871;29;20216;-84
2023/11/14 04:17:53;;;;;;;10.60;1.57;;;;;;;;;;4838911;29;20548;-84
2023/11/14 04:20:58;;;;;;;11.10;2.27;;;;;;;;;;4828165;29;20189;-84
2023/11/14 04:24:02;;;;;;;9.77;1.73;;;;;;;;;;4829859;29;20225;-84
2023/11/14 04:27:06;;;;;;;7.43;1.20;;;;;;;;;;4828900;29;20531;-84
2023/11/14 04:30:11;;;;;;;11.90;1.90;;;;;;;;;;4838834;29;20216;-84
2023/11/14 04:33:14;;;;;;;10.43;2.10;;;;;;;;;;4827704;29;20238;-84
2023/11/14 04:36:19;;;;;;;7.50;1.70;;;;;;;;;;4827706;29;20211;-84
2023/11/14 04:39:23;;;;;;;7.10;1.90;;;;;;;;;;4827508;29;20189;-84
2023/11/14 04:42:28;;;;;;;6.60;1.53;;;;;;;;;;4837607;29;20228;-84
2023/11/14 04:45:32;;;;;;;9.00;2.00;;;;;;;;;;4827354;29;20192;-84
2023/11/14 04:48:36;;;;;;;5.90;1.63;;;;;;;;;;4826973;29;20192;-84
2023/11/14 04:51:40;;;;;;;6.37;1.83;;;;;;;;;;4828193;29;20227;-84
2023/11/14 04:54:44;;;;;;;6.03;1.80;;;;;;;;;;4827175;29;20204;-84
2023/11/14 04:57:48;;;;;;;6.77;1.60;;;;;;;;;;4827754;29;20192;-85
2023/11/14 05:00:52;;;;;;;8.97;1.63;;;;;;;;;;4837427;29;20192;-84
2023/11/14 05:03:57;;;;;;;12.47;1.70;;;;;;;;;;4835942;29;20196;-84
2023/11/14 05:07:02;;;;;;;9.63;1.73;;;;;;;;;;4826945;29;20192;-84
2023/11/14 05:10:07;;;;;;;12.20;2.23;;;;;;;;;;4816343;29;20220;-84
2023/11/14 05:13:11;;;;;;;8.60;2.00;;;;;;;;;;4858108;23;20266;-84
2023/11/14 05:16:16;;;;;;;8.13;1.63;;;;;;;;;;4827169;29;20192;-84
2023/11/14 05:19:20;;;;;;;4.77;1.63;;;;;;;;;;4826586;29;20193;-84
2023/11/14 05:22:24;;;;;;;11.30;1.80;;;;;;;;;;4826505;29;20227;-84
2023/11/14 05:25:28;;;;;;;9.27;1.70;;;;;;;;;;4827115;29;20196;-84
2023/11/14 05:28:32;;;;;;;8.37;1.80;;;;;;;;;;4827033;29;20189;-84
2023/11/14 05:31:37;;;;;;;9.00;2.00;;;;;;;;;;4826109;29;20216;-84
2023/11/14 05:34:41;;;;;;;8.80;2.00;;;;;;;;;;4815601;29;20196;-84
2023/11/14 05:37:45;;;;;;;12.00;2.17;;;;;;;;;;4826201;29;20192;-84
2023/11/14 05:40:49;;;;;;;5.53;1.63;;;;;;;;;;4826852;29;20635;-84
2023/11/14 05:43:53;;;;;;;8.03;1.63;;;;;;;;;;4836678;29;20193;-84
2023/11/14 05:46:57;;;;;;;8.87;2.27;;;;;;;;;;4826342;29;20189;-84
2023/11/14 05:50:06;;;;;;;11.10;2.10;;;;;;;;;;4825810;29;20567;-84
2023/11/14 05:53:10;;;;;;;7.67;2.43;;;;;;;;;;4825676;29;20228;-84
2023/11/14 05:56:16;;;;;;;8.40;1.67;;;;;;;;;;4815524;29;20642;-84
2023/11/14 05:59:20;;;;;;;7.83;1.80;;;;;;;;;;4825940;29;20196;-84
2023/11/14 06:02:25;;;;;;;8.73;2.20;;;;;;;;;;4826029;29;20260;-85
2023/11/14 06:05:28;;;;;;;6.63;1.50;;;;;;;;;;4815572;29;20196;-85
2023/11/14 06:08:33;;;;;;;12.93;2.30;;;;;;;;;;4815662;29;20200;-85
2023/11/14 06:11:36;;;;;;;15.43;3.00;;;;;;;;;;4814491;29;20220;-84
2023/11/14 06:14:41;;;;;;;13.23;2.30;;;;;;;;;;4825017;29;20192;-85
2023/11/14 06:17:45;;;;;;;6.63;1.60;;;;;;;;;;4815292;29;20196;-85
2023/11/14 06:20:49;;;;;;;7.17;2.00;;;;;;;;;;4815076;29;20196;-85
2023/11/14 06:23:53;;;;;;;11.37;1.97;;;;;;;;;;4825922;29;20188;-85
2023/11/14 06:26:57;;;;;;;34.17;19.03;;;;;;;;;;4824937;29;20196;-85
2023/11/14 06:30:02;;;;;;;6.53;2.37;;;;;;;;;;4824784;29;20227;-85
2023/11/14 06:33:08;;;;;;;9.80;2.80;;;;;;;;;;4825088;29;20232;-85
2023/11/14 06:36:14;;;;;;;10.67;3.33;;;;;;;;;;4814069;29;20200;-85
2023/11/14 06:39:18;;;;;;;6.90;2.20;;;;;;;;;;4825619;29;20626;-86
2023/11/14 06:42:25;;;;;;;11.53;2.90;;;;;;;;;;4824989;29;20228;-85
2023/11/14 06:45:29;;;;;;;9.53;2.67;;;;;;;;;;4813916;29;20201;-85
2023/11/14 06:48:34;;;;;;;10.10;3.50;;;;;;;;;;4824111;29;20188;-85
2023/11/14 06:57:52;;;;;;;9.37;3.17;;;;;;;;;;4861151;29;20223;-85
2023/11/14 07:00:56;;;;;;;12.40;4.10;;;;;;;;;;4850981;29;20191;-84
2023/11/14 07:04:00;;;;;;;12.93;4.23;;;;;;;;;;4843710;29;20191;-84
2023/11/14 07:07:05;;;;;;;12.77;4.80;;;;;;;;;;4843846;29;20188;-85
2023/11/14 07:10:09;;;;;;;15.50;3.00;;;;;;;;;;4844571;29;20223;-85
2023/11/14 07:13:13;;;;;;;11.77;3.50;;;;;;;;;;4843181;29;20709;-86
2023/11/14 07:16:17;;;;;;;8.93;3.00;;;;;;;;;;4842953;29;20191;-86
2023/11/14 07:19:21;;;;;;;9.10;2.60;;;;;;;;;;4832506;29;20519;-85
2023/11/14 07:22:25;;;;;;;12.73;4.93;;;;;;;;;;4844886;29;20239;-84
2023/11/14 07:25:34;;;;;;;7.60;2.47;;;;;;;;;;4832771;29;20199;-84
2023/11/14 07:28:40;;;;;;;9.40;2.47;;;;;;;;;;4843424;29;20188;-84
2023/11/14 07:31:45;;;;;;;7.80;2.30;;;;;;;;;;4852731;23;20242;-83
2023/11/14 07:34:49;;;;;;;7.03;2.23;;;;;;;;;;4864560;29;20183;-85
2023/11/14 07:37:53;;;;;;;7.03;2.20;;;;;;;;;;4862735;29;20195;-79
2023/11/14 07:40:57;;;;;;;6.30;3.23;;;;;;;;;;4863132;29;20191;-79
2023/11/14 07:44:02;;;;;;;8.10;4.53;;;;;;;;;;4851909;29;20198;-79
2023/11/14 07:47:06;;;;;;;7.77;3.13;;;;;;;;;;4862652;29;20190;-79
2023/11/14 07:50:10;;;;;;;6.53;1.90;;;;;;;;;;4863562;29;20214;-80
2023/11/14 07:53:16;;;;;;;5.63;1.70;;;;;;;;;;4862947;29;20234;-79
2023/11/14 07:56:20;;;;;;;9.37;1.90;;;;;;;;;;4850925;29;20634;-79
2023/11/14 07:59:24;;;;;;;4.13;2.03;;;;;;;;;;4862280;29;20187;-80
2023/11/14 08:02:30;;;;;;;3.27;1.43;;;;;;;;;;4862167;29;20692;-79
2023/11/14 08:05:40;;;;;;;4.33;1.40;;;;;;;;;;4851353;29;20191;-79
2023/11/14 08:08:44;;;;;;;8.23;1.40;;;;;;;;;;4861889;29;20183;-79
2023/11/14 08:11:48;;;;;;;4.27;1.13;;;;;;;;;;4862353;29;20222;-80
2023/11/14 08:14:52;;;;;;;4.23;1.97;;;;;;;;;;4862177;29;20199;-79
2023/11/14 08:17:56;;;;;;;3.97;2.60;;;;;;;;;;4862601;29;20195;-79
2023/11/14 08:21:00;;;;;;;2.93;1.30;;;;;;;;;;4850891;29;20187;-79
2023/11/14 08:24:04;;;;;;;5.33;1.10;;;;;;;;;;4862607;29;20191;-80
2023/11/14 08:27:08;;;;;;;2.67;1.00;;;;;;;;;;4862669;29;20286;-79
2023/11/14 08:30:13;;;;;;;3.53;1.27;;;;;;;;;;4861834;29;20219;-79
2023/11/14 08:33:17;;;;;;;4.47;1.23;;;;;;;;;;4861689;29;20238;-79
2023/11/14 08:36:21;;;;;;;2.80;0.97;;;;;;;;;;4862245;29;20625;-79
2023/11/14 08:39:26;;;;;;;4.97;3.00;;;;;;;;;;4865361;29;20195;-80
2023/11/14 08:42:30;;;;;;;2.33;1.37;;;;;;;;;;4864968;29;20699;-81
2023/11/14 08:45:35;;;;;;;4.20;1.30;;;;;;;;;;4866781;29;20521;-81
2023/11/14 08:48:40;;;;;;;3.03;1.57;;;;;;;;;;4866536;29;20191;-84
2023/11/14 08:51:44;;;;;;;1.50;0.97;;;;;;;;;;4865279;29;20238;-84
2023/11/14 08:54:48;;;;;;;3.67;1.10;;;;;;;;;;4864995;23;20235;-86
2023/11/14 08:57:52;;;;;;;3.60;0.90;;;;;;;;;;4839747;29;20196;-85
2023/11/14 09:01:06;;;;;;;4.83;1.77;;;;;;;;;;4842068;29;20638;-86
2023/11/14 09:05:03;;;;;;;2.60;0.90;;;;;;;;;;4847028;29;20224;-84
2023/11/14 09:08:09;;;;;;;3.33;1.10;;;;;;;;;;4822708;29;20200;-84
2023/11/14 09:11:13;;;;;;;2.53;1.23;;;;;;;;;;4830039;29;20216;-84
2023/11/14 09:14:17;;;;;;;2.93;0.90;;;;;;;;;;4830287;29;20228;-84
2023/11/14 09:17:21;;;;;;;3.53;1.13;;;;;;;;;;4830271;29;20192;-86
2023/11/14 09:20:34;;;;;;;5.20;1.10;;;;;;;;;;4842911;29;20196;-84
2023/11/14 09:59:48;;;;;;;1.53;0.80;;;;;;;;;;4683127;30;20226;-84
2023/11/14 10:03:33;;;;;;;2.17;0.70;;;;;;;;;;4673015;30;20226;-84
2023/11/14 10:06:41;;;;;;;0.93;0.63;;;;;;;;;;4741811;30;20211;-84
2023/11/14 10:09:46;;;;;;;3.10;1.10;;;;;;;;;;4750585;30;20688;-83
2023/11/14 10:12:52;;;;;;;2.00;0.80;;;;;;;;;;4852309;29;20188;-84
2023/11/14 10:16:20;;;;;;;3.63;0.80;;;;;;;;;;4831633;29;20208;-84
2023/11/14 10:19:24;;;;;;;2.20;0.67;;;;;;;;;;4832667;29;20192;-84
2023/11/14 10:22:29;;;;;;;3.07;0.70;;;;;;;;;;4831837;29;20180;-82
2023/11/14 10:25:33;;;;;;;0.90;0.60;;;;;;;;;;4841464;29;20220;-84
2023/11/14 10:28:50;;;;;;;5.40;0.80;;;;;;;;;;4842145;29;20188;-84
2023/11/14 10:31:54;;;;;;;12.07;8.23;;;;;;;;;;4852406;29;20212;-84
2023/11/14 10:35:15;;;;;;;1.90;1.00;;;;;;;;;;4841314;29;20231;-85
2023/11/14 10:38:24;;;;;;;0.93;0.80;;;;;;;;;;4830806;29;20189;-86
2023/11/14 10:41:29;;;;;;;2.07;0.70;;;;;;;;;;4852035;29;20193;-84
2023/11/14 10:44:33;;;;;;;1.57;0.73;;;;;;;;;;4841733;29;20228;-85
2023/11/14 10:47:42;;;;;;;2.30;0.80;;;;;;;;;;4841686;29;20188;-84
2023/11/14 10:50:48;;;;;;;1.33;0.60;;;;;;;;;;4841847;29;20216;-84
2023/11/14 10:53:54;;;;;;;2.00;0.70;;;;;;;;;;4841815;29;20188;-85
2023/11/14 10:56:59;;;;;;;1.77;0.70;;;;;;;;;;4841657;29;20539;-84
2023/11/14 11:00:10;;;;;;;1.67;0.60;;;;;;;;;;4840990;29;20184;-84
2023/11/14 11:04:01;;;;;;;3.87;1.10;;;;;;;;;;4841787;29;20196;-84
2023/11/14 12:57:09;;;;;;;4.07;0.70;;;;;;;;;;4835234;29;20216;-84
2023/11/14 13:00:14;;;;;;;2.00;0.93;;;;;;;;;;4840351;29;20220;-84
2023/11/14 13:03:18;;;;;;;0.77;0.50;;;;;;;;;;4830640;29;20200;-84
2023/11/14 13:06:22;;;;;;;0.80;0.50;;;;;;;;;;4830680;29;20200;-84
2023/11/14 13:09:28;;;;;;;2.43;0.60;;;;;;;;;;4830518;29;20196;-84
2023/11/14 13:12:32;;;;;;;2.20;0.60;;;;;;;;;;4819240;29;20220;-84
2023/11/14 13:15:36;;;;;;;0.90;0.53;;;;;;;;;;4839659;29;20235;-84
2023/11/14 13:18:43;;;;;;;3.80;0.80;;;;;;;;;;4818928;29;20192;-85
2023/11/14 13:21:47;;;;;;;1.67;0.90;;;;;;;;;;4829854;29;20642;-84
2023/11/14 13:24:51;;;;;;;4.90;1.10;;;;;;;;;;4828558;29;20236;-84
2023/11/14 13:27:55;;;;;;;1.43;0.57;;;;;;;;;;4829264;29;20196;-84
2023/11/14 13:31:00;;;;;;;1.47;0.70;;;;;;;;;;4830230;29;20192;-85
2023/11/14 13:34:05;;;;;;;1.63;0.93;;;;;;;;;;4839960;29;20232;-84
2023/11/14 13:37:09;;;;;;;2.53;0.93;;;;;;;;;;4840214;29;20188;-84
2023/11/14 13:40:13;;;;;;;6.17;3.20;;;;;;;;;;4830146;29;20196;-84
2023/11/14 13:43:17;;;;;;;7.33;4.03;;;;;;;;;;4829812;29;20189;-84
2023/11/14 13:46:22;;;;;;;6.83;4.50;;;;;;;;;;4818992;29;20196;-84
2023/11/14 13:49:26;;;;;;;15.03;7.50;;;;;;;;;;4840027;29;20192;-84
2023/11/14 13:52:34;;;;;;;14.90;8.77;;;;;;;;;;4839823;29;20216;-84
2023/11/14 13:55:41;;;;;;;41.03;24.10;;;;;;;;;;4829721;29;20232;-85
2023/11/14 13:58:46;;;;;;;5.03;3.27;;;;;;;;;;4829629;29;20238;-84
2023/11/14 14:01:50;;;;;;;18.07;9.27;;;;;;;;;;4828777;29;20197;-83
2023/11/14 14:04:54;;;;;;;24.13;12.13;;;;;;;;;;4829936;29;20254;-84
2023/11/14 14:07:59;;;;;;;11.07;6.13;;;;;;;;;;4818595;29;20223;-85
2023/11/14 14:11:06;;;;;;;1.77;1.10;;;;;;;;;;4829889;29;20216;-84
2023/11/14 14:14:13;;;;;;;2.13;1.37;;;;;;;;;;4828993;29;20710;-84
2023/11/14 14:17:16;;;;;;;1.90;0.90;;;;;;;;;;4839991;29;20193;-85
2023/11/14 14:20:21;;;;;;;2.23;0.80;;;;;;;;;;4828914;29;20184;-85
2023/11/14 14:23:25;;;;;;;2.50;0.90;;;;;;;;;;4828985;29;20188;-84
2023/11/14 14:26:29;;;;;;;1.27;0.80;;;;;;;;;;4829357;29;20196;-84
2023/11/14 14:29:35;;;;;;;1.83;0.83;;;;;;;;;;4829627;29;20197;-85
2023/11/14 14:32:39;;;;;;;5.03;1.73;;;;;;;;;;4839825;29;20216;-84
2023/11/14 14:35:43;;;;;;;2.73;0.83;;;;;;;;;;4829087;29;20243;-85
2023/11/14 14:38:47;;;;;;;3.00;1.50;;;;;;;;;;4840278;29;20196;-84
2023/11/14 14:41:52;;;;;;;3.40;1.87;;;;;;;;;;4829247;29;20523;-85
2023/11/14 14:44:56;;;;;;;2.43;1.10;;;;;;;;;;4828914;29;20567;-85
2023/11/14 14:48:01;;;;;;;1.67;0.87;;;;;;;;;;4829143;29;20192;-84
2023/11/14 14:51:05;;;;;;;1.90;0.90;;;;;;;;;;4828963;29;20196;-84
2023/11/14 14:54:09;;;;;;;2.47;1.60;;;;;;;;;;4870100;23;20194;-84
2023/11/14 14:57:13;;;;;;;2.13;1.50;;;;;;;;;;4863406;29;20656;-85
2023/11/14 15:00:18;;;;;;;2.00;1.20;;;;;;;;;;4864516;29;20195;-84
2023/11/14 15:03:22;;;;;;;3.60;1.20;;;;;;;;;;4843020;29;20179;-85
2023/11/14 15:06:26;;;;;;;2.10;1.30;;;;;;;;;;4834042;29;20558;-85
2023/11/14 15:09:30;;;;;;;3.50;1.40;;;;;;;;;;4834047;29;20188;-85
2023/11/14 15:12:34;;;;;;;4.80;1.77;;;;;;;;;;4823601;29;20573;-86
2023/11/14 15:15:42;;;;;;;2.47;1.53;;;;;;;;;;4834418;29;20231;-85
2023/11/14 15:18:46;;;;;;;1.83;0.90;;;;;;;;;;4835285;29;20188;-84
2023/11/14 15:21:50;;;;;;;3.33;0.83;;;;;;;;;;4846838;29;20183;-84
2023/11/14 15:24:55;;;;;;;2.77;0.90;;;;;;;;;;4846387;29;20231;-85
2023/11/14 15:27:59;;;;;;;4.73;1.20;;;;;;;;;;4834983;29;20191;-85
2023/11/14 15:31:03;;;;;;;5.73;4.27;;;;;;;;;;4834978;29;20196;-84
2023/11/14 15:34:08;;;;;;;5.73;2.93;;;;;;;;;;4823773;29;20179;-84
2023/11/14 15:37:12;;;;;;;2.77;1.30;;;;;;;;;;4834331;29;20199;-84
2023/11/14 15:40:18;;;;;;;1.93;1.50;;;;;;;;;;4843852;29;20192;-85
2023/11/14 15:43:21;;;;;;;1.67;1.10;;;;;;;;;;4832743;29;20184;-85
2023/11/14 15:53:34;;;;;;;2.60;1.03;;;;;;;;;;4863144;29;20238;-86
2023/11/14 15:57:45;;;;;;;2.43;1.30;;;;;;;;;;4846854;29;20183;-85
2023/11/14 16:00:52;;;;;;;4.40;2.80;;;;;;;;;;4847038;29;20227;-85
2023/11/14 16:03:56;;;;;;;6.17;4.50;;;;;;;;;;4825602;29;20188;-85
2023/11/14 16:07:01;;;;;;;5.27;3.43;;;;;;;;;;4825522;29;20193;-85
2023/11/14 16:10:06;;;;;;;5.27;3.30;;;;;;;;;;4835711;29;20196;-85
2023/11/14 16:13:10;;;;;;;6.57;3.10;;;;;;;;;;4826287;29;20223;-85
2023/11/14 16:16:15;;;;;;;6.60;4.37;;;;;;;;;;4848881;29;20196;-85
2023/11/14 16:19:19;;;;;;;3.50;1.60;;;;;;;;;;4849048;29;20195;-86
2023/11/14 16:22:23;;;;;;;3.00;1.50;;;;;;;;;;4849049;29;20183;-85
2023/11/14 16:25:27;;;;;;;2.13;1.50;;;;;;;;;;4826897;29;20230;-85
2023/11/14 16:28:32;;;;;;;1.30;0.90;;;;;;;;;;4827343;29;20192;-85
2023/11/14 16:31:37;;;;;;;1.17;0.70;;;;;;;;;;4849027;29;20542;-85
2023/11/14 16:34:42;;;;;;;2.13;1.70;;;;;;;;;;4837560;29;20231;-85
2023/11/14 16:37:46;;;;;;;1.87;1.00;;;;;;;;;;4837751;29;20547;-85
2023/11/14 16:40:50;;;;;;;2.03;1.87;;;;;;;;;;4848311;29;20195;-85
2023/11/14 16:43:54;;;;;;;2.80;1.37;;;;;;;;;;4836216;29;20634;-86
2023/11/14 16:47:05;;;;;;;3.37;1.40;;;;;;;;;;4847752;29;20195;-84
2023/11/14 16:50:10;;;;;;;3.00;2.10;;;;;;;;;;4836586;29;20184;-85
2023/11/14 16:53:15;;;;;;;0.80;0.80;;;;;;;;;;4837021;29;20219;-86
2023/11/14 16:56:19;;;;;;;5.03;2.90;;;;;;;;;;4848080;29;20200;-86
2023/11/14 16:59:23;;;;;;;3.13;1.53;;;;;;;;;;4837368;29;20645;-86
2023/11/14 17:02:27;;;;;;;1.83;1.43;;;;;;;;;;4836633;29;20192;-87
2023/11/14 17:05:31;;;;;;;1.87;1.37;;;;;;;;;;4836010;29;20223;-87
2023/11/14 17:08:36;;;;;;;2.57;1.30;;;;;;;;;;4825817;29;20195;-87
2023/11/14 17:11:40;;;;;;;1.30;0.97;;;;;;;;;;4835649;29;20633;-87
2023/11/14 17:14:44;;;;;;;0.90;0.73;;;;;;;;;;4825365;29;20228;-87
2023/11/14 17:17:48;;;;;;;2.63;1.43;;;;;;;;;;4846749;29;20196;-87
2023/11/14 17:20:52;;;;;;;1.13;0.90;;;;;;;;;;4836101;29;20191;-86
2023/11/14 17:23:56;;;;;;;1.50;0.70;;;;;;;;;;4826156;29;20195;-86
2023/11/14 17:27:01;;;;;;;2.70;1.63;;;;;;;;;;4827225;29;20195;-86
2023/11/14 17:30:06;;;;;;;1.80;1.00;;;;;;;;;;4847696;29;20200;-86
2023/11/14 17:33:09;;;;;;;0.63;0.63;;;;;;;;;;4835363;29;20224;-85
2023/11/14 17:36:15;;;;;;;1.00;0.70;;;;;;;;;;4846941;29;20227;-86
2023/11/14 17:39:19;;;;;;;0.87;0.57;;;;;;;;;;4826158;29;20191;-85
2023/11/14 17:42:23;;;;;;;0.93;0.67;;;;;;;;;;4836465;29;20192;-86
2023/11/14 17:45:29;;;;;;;2.30;1.00;;;;;;;;;;4836064;29;20231;-87
2023/11/14 17:48:33;;;;;;;4.73;1.00;;;;;;;;;;4824633;29;20187;-87
2023/11/14 17:51:37;;;;;;;3.70;2.90;;;;;;;;;;4814713;29;20219;-87
2023/11/14 17:54:42;;;;;;;5.93;2.40;;;;;;;;;;4845485;29;20216;-87
2023/11/14 17:57:47;;;;;;;4.10;1.93;;;;;;;;;;4834358;29;20196;-87
2023/11/14 18:00:51;;;;;;;2.30;1.83;;;;;;;;;;4833908;29;20187;-87
2023/11/14 18:03:59;;;;;;;1.50;0.90;;;;;;;;;;4845155;29;20191;-87
2023/11/14 18:07:04;;;;;;;1.00;0.80;;;;;;;;;;4823595;29;20196;-85
2023/11/14 18:10:09;;;;;;;1.23;0.83;;;;;;;;;;4845228;29;20188;-86
2023/11/14 18:13:15;;;;;;;1.83;1.20;;;;;;;;;;4833830;29;20223;-86
2023/11/14 18:16:21;;;;;;;1.70;0.93;;;;;;;;;;4845015;29;20195;-86
2023/11/14 18:19:25;;;;;;;1.00;0.90;;;;;;;;;;4845160;29;20187;-86
2023/11/14 18:22:29;;;;;;;3.83;0.90;;;;;;;;;;4823352;29;20535;-86
2023/11/14 18:25:33;;;;;;;2.50;0.90;;;;;;;;;;4833208;29;20227;-86
2023/11/14 18:28:37;;;;;;;1.10;0.80;;;;;;;;;;4834334;29;20195;-85
2023/11/14 18:31:41;;;;;;;1.83;1.00;;;;;;;;;;4834187;29;20192;-86
2023/11/14 18:34:45;;;;;;;1.50;0.83;;;;;;;;;;4836853;29;20223;-85
2023/11/14 18:37:49;;;;;;;1.57;1.23;;;;;;;;;;4849628;29;20195;-84
2023/11/14 18:40:53;;;;;;;4.00;1.30;;;;;;;;;;4848245;29;20191;-86
2023/11/14 18:43:59;;;;;;;1.50;0.97;;;;;;;;;;4812490;29;20191;-85
2023/11/14 18:47:04;;;;;;;2.10;1.10;;;;;;;;;;4812994;29;20188;-85
2023/11/14 18:50:08;;;;;;;2.67;1.00;;;;;;;;;;4828259;29;20207;-84
2023/11/14 18:53:14;;;;;;;1.87;0.97;;;;;;;;;;4838940;29;20215;-84
2023/11/14 18:56:19;;;;;;;1.27;0.80;;;;;;;;;;4850870;29;20195;-85
2023/11/14 18:59:23;;;;;;;2.93;1.13;;;;;;;;;;4848697;29;20650;-84
2023/11/14 19:02:27;;;;;;;1.70;0.90;;;;;;;;;;4850083;29;20212;-84
2023/11/14 19:05:33;;;;;;;1.73;0.90;;;;;;;;;;4848114;29;20227;-84
2023/11/14 19:08:37;;;;;;;2.40;0.80;;;;;;;;;;4827982;29;20196;-84
2023/11/14 19:11:42;;;;;;;2.40;1.23;;;;;;;;;;4838175;29;20187;-84
2023/11/14 19:14:49;;;;;;;1.70;0.90;;;;;;;;;;4828110;29;20234;-84
2023/11/14 19:17:54;;;;;;;3.00;0.97;;;;;;;;;;4837932;29;20188;-84
2023/11/14 19:20:58;;;;;;;1.17;0.93;;;;;;;;;;4847829;29;20192;-84
2023/11/14 19:24:05;;;;;;;3.10;1.20;;;;;;;;;;4848112;29;20531;-84
2023/11/14 19:27:09;;;;;;;1.80;1.27;;;;;;;;;;4834789;29;20196;-84
2023/11/14 19:30:15;;;;;;;2.70;1.20;;;;;;;;;;4834370;29;20191;-84
2023/11/14 19:33:20;;;;;;;1.90;1.23;;;;;;;;;;4834652;29;20219;-84
2023/11/14 19:36:24;;;;;;;1.80;1.27;;;;;;;;;;4834866;29;20633;-84
2023/11/14 19:39:28;;;;;;;1.93;1.27;;;;;;;;;;4844690;29;20192;-84
2023/11/14 19:42:32;;;;;;;2.23;1.40;;;;;;;;;;4833829;29;20645;-85
2023/11/14 19:45:36;;;;;;;3.33;1.30;;;;;;;;;;4844520;29;20223;-84
2023/11/14 19:48:40;;;;;;;4.43;2.23;;;;;;;;;;4833359;29;20196;-84
2023/11/14 19:51:44;;;;;;;5.07;2.43;;;;;;;;;;4823069;29;20677;-85
2023/11/14 19:54:48;;;;;;;5.00;2.93;;;;;;;;;;4822208;29;20705;-85
2023/11/14 19:57:53;;;;;;;2.57;1.60;;;;;;;;;;4832765;29;20191;-85
2023/11/14 20:00:59;;;;;;;2.33;1.53;;;;;;;;;;4831980;29;20196;-85
2023/11/14 20:04:04;;;;;;;3.03;1.40;;;;;;;;;;4821370;29;20191;-85
2023/11/14 20:07:09;;;;;;;3.20;1.90;;;;;;;;;;4822525;29;20192;-85
2023/11/14 20:10:13;;;;;;;2.17;1.97;;;;;;;;;;4821914;29;20188;-85
2023/11/14 20:13:18;;;;;;;3.53;1.87;;;;;;;;;;4843129;29;20223;-86
2023/11/14 20:16:22;;;;;;;2.00;1.80;;;;;;;;;;4830963;29;20650;-86
2023/11/14 20:19:25;;;;;;;3.27;1.97;;;;;;;;;;4831559;29;20196;-86
2023/11/14 20:22:31;;;;;;;2.70;1.67;;;;;;;;;;4831429;29;20515;-86
2023/11/14 20:25:35;;;;;;;5.33;3.93;;;;;;;;;;4831438;29;20223;-86
2023/11/14 20:28:39;;;;;;;14.53;10.73;;;;;;;;;;4831368;29;20187;-86
2023/11/14 20:31:44;;;;;;;9.83;8.50;;;;;;;;;;4832212;29;20192;-86
2023/11/14 20:34:47;;;;;;;2.43;2.23;;;;;;;;;;4834716;29;20242;-86
2023/11/14 20:37:52;;;;;;;1.90;1.47;;;;;;;;;;4834943;29;20196;-86
2023/11/14 20:40:56;;;;;;;4.03;1.50;;;;;;;;;;4826889;29;20196;-85
2023/11/14 20:44:01;;;;;;;2.27;1.70;;;;;;;;;;4826096;29;20192;-85
2023/11/14 20:47:08;;;;;;;2.13;1.60;;;;;;;;;;4827486;29;20199;-85
2023/11/14 20:50:12;;;;;;;2.77;1.87;;;;;;;;;;4848184;29;20200;-85
2023/11/14 20:53:16;;;;;;;2.93;1.73;;;;;;;;;;4834812;29;20689;-85
2023/11/14 20:56:24;;;;;;;2.40;1.73;;;;;;;;;;4873181;23;20238;-85
2023/11/14 20:59:28;;;;;;;2.10;1.90;;;;;;;;;;4849203;29;20188;-86
2023/11/14 21:02:32;;;;;;;1.97;1.70;;;;;;;;;;4838648;29;20195;-86
2023/11/14 21:05:36;;;;;;;1.73;1.33;;;;;;;;;;4840722;29;20231;-86
2023/11/14 21:08:40;;;;;;;3.50;1.93;;;;;;;;;;4840291;29;20196;-87